Kaunas, Lithuania
Current Conditions -  °F | °C
As of 5:20 PM on Friday 31 Oct 2014 (Local Time) from EYKA Reporting Station
Overcast Overcast  
Wind Chill: 38°   Ceiling: 700
Heat Index: 43°   Visibility: 6mi
Dew Point: 39°   Wind: 8mph
Humidity: 87%   Direction: 260°W
Pressure: 30.3"   Gusts: NA
Location:  54.9°N, 23.91°E
Report Text: EYKA 311420Z 26007KT 9999 OVC007 06/04 Q1026
Loading
Personal Weather Stations






























Interactive Weather Map
Tropical Storm Tracking
New forecast layout! Learn more

10-Day Weather Forecast

Advertisements
Track Severe Weather on mobile